Time;durP1;ratioP1;P1;durP2;ratioP2;P2;SDS_P1;SDS_P2;PMS_P1;PMS_P2;Temp;Humidity;BMP_temperature;BMP_pressure;BME280_temperature;BME280_humidity;BME280_pressure;Samples;Min_cycle;Max_cycle;Signal;HPM_P1;HPM_P2
2022/07/21 00:00:29;;;;;;;4.38;1.75;;;24.00;68.80;;;;;;5079953;28;20134;-90
2022/07/21 00:02:57;;;;;;;6.10;1.98;;;23.90;69.50;;;;;;5057757;28;20044;-90
2022/07/21 00:05:26;;;;;;;9.70;2.08;;;23.90;69.00;;;;;;5052425;28;20044;-90
2022/07/21 00:07:54;;;;;;;5.20;2.15;;;23.90;69.20;;;;;;5048262;28;20516;-91
2022/07/21 00:10:24;;;;;;;10.85;2.50;;;23.80;68.50;;;;;;5053898;28;20548;-90
2022/07/21 00:12:52;;;;;;;10.63;2.05;;;23.90;68.90;;;;;;5056241;28;20044;-91
2022/07/21 00:15:22;;;;;;;7.30;2.08;;;23.90;69.20;;;;;;5076750;28;20052;-90
2022/07/21 00:17:51;;;;;;;6.82;2.03;;;23.80;67.30;;;;;;5059112;28;20190;-91
2022/07/21 00:20:19;;;;;;;4.82;2.00;;;23.80;66.20;;;;;;5073608;28;20044;-89
2022/07/21 00:22:46;;;;;;;6.68;2.03;;;23.80;66.20;;;;;;5058770;28;20040;-89
2022/07/21 00:25:15;;;;;;;5.65;1.98;;;23.80;65.30;;;;;;5056821;28;20129;-90
2022/07/21 00:27:43;;;;;;;9.23;2.33;;;23.90;64.80;;;;;;5068115;28;20059;-90
2022/07/21 00:30:12;;;;;;;3.92;1.88;;;23.90;67.00;;;;;;5066214;28;20404;-91
2022/07/21 00:32:39;;;;;;;3.47;1.77;;;23.90;67.60;;;;;;5035580;28;20168;-90
2022/07/21 00:35:08;;;;;;;5.10;1.40;;;23.80;66.70;;;;;;5037507;28;20051;-92
2022/07/21 00:37:36;;;;;;;5.03;2.10;;;23.80;67.40;;;;;;5015044;28;20065;-92
2022/07/21 00:40:06;;;;;;;5.53;1.80;;;23.80;66.50;;;;;;5043701;28;20046;-92
2022/07/21 00:42:34;;;;;;;7.75;1.92;;;23.80;65.30;;;;;;5029928;28;20053;-92
2022/07/21 00:45:04;;;;;;;3.83;2.00;;;23.70;67.10;;;;;;5024135;28;20073;-90
2022/07/21 00:47:32;;;;;;;4.85;1.70;;;23.70;67.40;;;;;;5008556;28;20107;-92
2022/07/21 00:50:03;;;;;;;5.90;2.30;;;23.60;66.50;;;;;;5034643;28;20136;-90
2022/07/21 00:52:30;;;;;;;5.60;1.85;;;23.60;64.80;;;;;;5015135;28;20132;-90
2022/07/21 00:54:57;;;;;;;3.97;1.50;;;23.60;65.60;;;;;;5014727;28;20046;-88
2022/07/21 00:57:25;;;;;;;3.47;2.03;;;23.60;66.00;;;;;;5012311;28;20055;-89
2022/07/21 00:59:53;;;;;;;4.40;1.88;;;23.60;66.20;;;;;;5041037;28;20489;-89
2022/07/21 01:02:20;;;;;;;4.95;1.98;;;23.60;66.00;;;;;;5012441;28;20081;-88
2022/07/21 01:04:48;;;;;;;4.43;1.60;;;23.50;67.40;;;;;;5019617;28;20148;-89
2022/07/21 01:07:16;;;;;;;6.07;2.35;;;23.40;66.30;;;;;;5032386;28;20057;-90
2022/07/21 01:09:43;;;;;;;5.40;1.88;;;23.40;66.80;;;;;;5033441;28;20049;-90
2022/07/21 01:12:11;;;;;;;5.45;1.73;;;23.40;66.80;;;;;;5032130;28;20107;-91
2022/07/21 01:14:38;;;;;;;4.88;1.58;;;23.40;66.80;;;;;;5031465;28;20033;-90
2022/07/21 01:17:06;;;;;;;4.57;1.42;;;23.40;67.20;;;;;;5033254;28;20030;-91
2022/07/21 01:19:33;;;;;;;3.03;1.80;;;23.30;67.20;;;;;;5037238;28;20045;-90
2022/07/21 01:22:01;;;;;;;3.47;1.55;;;23.30;67.00;;;;;;5057346;28;20076;-90
2022/07/21 01:24:28;;;;;;;4.38;1.52;;;23.20;66.60;;;;;;5032236;28;20049;-89
2022/07/21 01:26:56;;;;;;;3.63;1.52;;;23.20;67.50;;;;;;5028110;28;20175;-90
2022/07/21 01:29:23;;;;;;;5.60;2.15;;;23.20;68.00;;;;;;5031713;28;20080;-91
2022/07/21 01:31:51;;;;;;;4.68;1.83;;;23.10;68.10;;;;;;5013101;28;20548;-91
2022/07/21 01:34:19;;;;;;;4.63;1.70;;;23.10;68.30;;;;;;5025702;28;20430;-90
2022/07/21 01:36:46;;;;;;;6.43;2.08;;;23.10;69.00;;;;;;5031838;28;20092;-89
2022/07/21 01:42:01;;;;;;;10.20;2.05;;;23.00;67.80;;;;;;5027273;28;20111;-91
2022/07/21 01:44:28;;;;;;;3.22;1.70;;;23.00;68.10;;;;;;4992229;28;20053;-91
2022/07/21 01:46:56;;;;;;;4.88;2.00;;;23.00;67.70;;;;;;5029681;28;20409;-91
2022/07/21 01:49:23;;;;;;;6.70;1.60;;;23.00;65.30;;;;;;5011892;28;20046;-91
2022/07/21 01:51:51;;;;;;;4.10;2.33;;;22.90;63.70;;;;;;5013754;28;20053;-90
2022/07/21 01:54:19;;;;;;;2.05;1.35;;;23.10;63.40;;;;;;4997393;28;20497;-87
2022/07/21 01:56:51;;;;;;;6.43;1.60;;;23.10;63.00;;;;;;5012858;28;20058;-90
2022/07/21 01:59:19;;;;;;;2.20;1.17;;;23.10;62.30;;;;;;5008946;28;20045;-90
2022/07/21 02:01:46;;;;;;;2.33;1.30;;;23.20;61.90;;;;;;5030473;28;20061;-89
2022/07/21 02:04:14;;;;;;;6.85;1.52;;;23.20;62.10;;;;;;5030874;28;20050;-90
2022/07/21 02:06:42;;;;;;;4.47;1.52;;;23.30;61.40;;;;;;5030989;28;20055;-89
2022/07/21 02:09:09;;;;;;;4.22;1.27;;;23.30;61.60;;;;;;5015761;28;20520;-90
2022/07/21 02:11:37;;;;;;;5.22;1.55;;;23.30;61.60;;;;;;5029135;28;20049;-89
2022/07/21 02:14:06;;;;;;;4.25;1.48;;;23.30;61.40;;;;;;5032532;28;20030;-91
2022/07/21 02:16:34;;;;;;;2.47;1.27;;;23.20;61.10;;;;;;5015310;28;20080;-92
2022/07/21 02:19:02;;;;;;;4.75;1.65;;;23.20;61.30;;;;;;5033776;28;20124;-89
2022/07/21 02:21:30;;;;;;;5.22;1.50;;;23.30;61.60;;;;;;5033626;28;20056;-89
2022/07/21 02:23:57;;;;;;;4.78;1.33;;;23.20;61.20;;;;;;5036125;28;20044;-87
2022/07/21 02:26:25;;;;;;;4.03;1.63;;;23.20;61.40;;;;;;5035369;28;20378;-91
2022/07/21 02:28:52;;;;;;;4.30;1.30;;;23.20;61.00;;;;;;5030980;28;20065;-88
2022/07/21 02:31:20;;;;;;;5.07;1.90;;;23.20;62.70;;;;;;5020214;28;20073;-88
2022/07/21 02:33:48;;;;;;;3.55;1.75;;;23.20;62.90;;;;;;5023081;28;20040;-88
2022/07/21 02:36:15;;;;;;;4.53;1.60;;;23.00;61.10;;;;;;5013026;28;20088;-88
2022/07/21 02:38:43;;;;;;;5.13;1.33;;;22.90;61.20;;;;;;5035342;28;20068;-87
2022/07/21 02:41:10;;;;;;;4.40;1.40;;;23.00;61.50;;;;;;5018240;28;20046;-88
2022/07/21 02:43:38;;;;;;;5.15;1.40;;;23.00;61.30;;;;;;5028957;28;20050;-88
2022/07/21 02:46:05;;;;;;;3.10;1.65;;;23.00;61.40;;;;;;5027168;28;20098;-87
2022/07/21 02:48:34;;;;;;;3.90;1.50;;;23.10;61.40;;;;;;5032009;28;20045;-89
2022/07/21 02:51:01;;;;;;;3.60;1.98;;;23.10;61.00;;;;;;5028698;28;20046;-89
2022/07/21 02:53:29;;;;;;;4.47;1.65;;;23.10;62.00;;;;;;5030458;28;20519;-87
2022/07/21 02:55:57;;;;;;;3.78;1.20;;;23.00;63.60;;;;;;5026915;28;20046;-87
2022/07/21 02:58:29;;;;;;;5.82;1.38;;;23.00;61.90;;;;;;5011830;28;20053;-86
2022/07/21 03:01:06;;;;;;;2.70;1.20;;;23.00;61.80;;;;;;5004579;28;20490;-88
2022/07/21 03:03:36;;;;;;;4.10;1.90;;;23.00;61.60;;;;;;5027369;28;20565;-89
2022/07/21 03:06:05;;;;;;;2.20;1.25;;;22.90;64.00;;;;;;5012572;28;20050;-89
2022/07/21 03:08:33;;;;;;;3.50;1.80;;;22.90;64.70;;;;;;5020747;28;20065;-89
2022/07/21 03:11:00;;;;;;;8.15;1.30;;;22.90;65.50;;;;;;5017598;28;20046;-91
2022/07/21 03:13:28;;;;;;;4.80;1.40;;;22.90;66.00;;;;;;4975268;28;20065;-89
2022/07/21 03:15:55;;;;;;;3.00;1.70;;;22.90;64.20;;;;;;4990242;28;20042;-88
2022/07/21 03:18:23;;;;;;;2.33;1.30;;;22.90;62.80;;;;;;4975945;28;20064;-88
2022/07/21 03:20:50;;;;;;;6.47;1.80;;;22.90;64.20;;;;;;4975054;28;20038;-89
2022/07/21 03:23:18;;;;;;;2.53;1.23;;;22.90;65.00;;;;;;5000354;28;20057;-89
2022/07/21 03:25:45;;;;;;;2.90;1.00;;;22.90;64.90;;;;;;4988190;28;20038;-88
2022/07/21 03:28:13;;;;;;;8.73;2.10;;;22.90;64.40;;;;;;4985963;28;20101;-87
2022/07/21 03:30:40;;;;;;;5.82;1.48;;;22.90;63.00;;;;;;4969324;28;20057;-88
2022/07/21 03:33:07;;;;;;;5.68;1.58;;;22.90;62.70;;;;;;4982139;28;20057;-90
2022/07/21 03:35:38;;;;;;;6.95;2.88;;;22.90;62.10;;;;;;4984995;28;20076;-88
2022/07/21 03:38:05;;;;;;;4.32;1.75;;;22.90;63.40;;;;;;4990648;28;20073;-88
2022/07/21 03:40:35;;;;;;;2.10;1.30;;;22.90;62.30;;;;;;4989056;28;20042;-87
2022/07/21 03:43:05;;;;;;;9.90;1.60;;;22.90;62.00;;;;;;4988425;28;20141;-89
2022/07/21 03:45:34;;;;;;;4.88;1.83;;;22.90;62.10;;;;;;5008402;28;20498;-90
2022/07/21 03:48:03;;;;;;;4.45;1.95;;;22.80;62.30;;;;;;5023409;28;20126;-87
2022/07/21 03:50:31;;;;;;;5.53;1.77;;;22.90;63.00;;;;;;5019815;28;20046;-88
2022/07/21 03:52:59;;;;;;;3.83;1.52;;;22.90;62.70;;;;;;5029624;28;20049;-88
2022/07/21 03:55:26;;;;;;;6.40;1.80;;;22.90;64.20;;;;;;5032643;28;20457;-90
2022/07/21 03:57:58;;;;;;;5.13;1.70;;;22.90;63.60;;;;;;5025046;28;20132;-90
2022/07/21 04:00:31;;;;;;;5.05;2.03;;;23.00;63.60;;;;;;5025714;28;20065;-89
2022/07/21 04:03:00;;;;;;;4.00;1.67;;;23.00;63.60;;;;;;5035444;28;20048;-90
2022/07/21 04:05:28;;;;;;;3.85;1.55;;;23.00;64.50;;;;;;5032482;28;20046;-90
2022/07/21 04:07:56;;;;;;;3.28;1.75;;;23.00;64.40;;;;;;5028584;28;20132;-91
2022/07/21 04:10:26;;;;;;;5.68;1.60;;;23.00;63.70;;;;;;5028386;28;20121;-90
2022/07/21 04:12:56;;;;;;;6.10;1.77;;;23.10;66.10;;;;;;5016515;28;20104;-91
2022/07/21 04:15:23;;;;;;;5.85;1.60;;;23.10;67.20;;;;;;5048966;28;20345;-90
2022/07/21 04:17:51;;;;;;;4.18;1.60;;;23.10;65.70;;;;;;5029329;28;20558;-91
2022/07/21 04:20:19;;;;;;;4.80;1.67;;;23.10;67.60;;;;;;5015009;28;20069;-91
2022/07/21 04:22:47;;;;;;;5.68;1.90;;;23.20;66.50;;;;;;5035362;28;20053;-90
2022/07/21 04:25:16;;;;;;;7.88;1.98;;;23.20;65.80;;;;;;5048131;28;20150;-89
2022/07/21 04:27:44;;;;;;;8.63;2.15;;;23.30;67.50;;;;;;5033862;28;20047;-91
2022/07/21 04:30:15;;;;;;;5.25;1.75;;;23.30;66.10;;;;;;5013459;28;20038;-91
2022/07/21 04:32:42;;;;;;;5.82;2.15;;;23.40;68.00;;;;;;5034140;28;20046;-90
2022/07/21 04:35:11;;;;;;;8.75;2.08;;;23.40;64.40;;;;;;5033683;28;20049;-90
2022/07/21 04:37:38;;;;;;;3.42;1.90;;;23.40;64.20;;;;;;5016301;28;20057;-90
2022/07/21 04:40:09;;;;;;;4.00;1.65;;;23.50;64.90;;;;;;5014563;28;20145;-90
2022/07/21 04:42:36;;;;;;;7.97;1.98;;;23.60;65.10;;;;;;5029151;28;20065;-90
2022/07/21 04:45:06;;;;;;;5.40;1.75;;;23.60;64.70;;;;;;5030245;28;20041;-90
2022/07/21 04:47:50;;;;;;;6.90;1.77;;;23.70;65.60;;;;;;5035206;28;20057;-91
2022/07/21 04:50:19;;;;;;;;;;;23.80;65.40;;;;;;5033867;28;20045;-91
2022/07/21 04:52:47;;;;;;;4.88;1.90;;;23.90;64.50;;;;;;5050402;28;19925;-91
2022/07/21 04:55:15;;;;;;;6.95;2.42;;;23.90;64.30;;;;;;5013916;28;20033;-91
2022/07/21 04:57:45;;;;;;;5.70;1.77;;;24.00;65.50;;;;;;5034722;28;20041;-90
2022/07/21 05:00:19;;;;;;;6.75;2.22;;;24.10;64.70;;;;;;5058984;28;20103;-90
2022/07/21 05:02:48;;;;;;;7.35;1.92;;;24.10;65.40;;;;;;5030471;28;20045;-90
2022/07/21 05:05:16;;;;;;;4.55;2.17;;;24.30;64.50;;;;;;5033765;28;22617;-87
2022/07/21 05:07:43;;;;;;;6.25;2.63;;;24.30;63.70;;;;;;5032685;28;20890;-91
2022/07/21 05:10:14;;;;;;;6.15;2.22;;;24.40;63.30;;;;;;5048206;28;20059;-91
2022/07/21 05:12:41;;;;;;;3.28;1.67;;;24.60;62.80;;;;;;5047455;28;20051;-91
2022/07/21 05:15:11;;;;;;;6.90;2.13;;;24.70;62.40;;;;;;5029868;28;20155;-89
2022/07/21 05:17:39;;;;;;;4.55;2.08;;;24.90;61.90;;;;;;5046894;28;20052;-90
2022/07/21 05:20:08;;;;;;;8.15;2.10;;;25.00;61.20;;;;;;5032447;28;20151;-87
2022/07/21 05:22:36;;;;;;;3.25;1.80;;;25.20;61.20;;;;;;5028519;28;20053;-90
2022/07/21 05:25:05;;;;;;;7.78;2.80;;;25.30;61.30;;;;;;5005020;28;20049;-90
2022/07/21 05:27:33;;;;;;;5.15;2.30;;;25.50;61.00;;;;;;5029799;28;20079;-90
2022/07/21 05:30:00;;;;;;;6.10;2.42;;;25.60;59.90;;;;;;5058129;28;20049;-84
2022/07/21 05:32:28;;;;;;;8.15;2.42;;;25.80;59.90;;;;;;5011851;28;20057;-90
2022/07/21 05:34:55;;;;;;;6.85;2.97;;;25.90;59.30;;;;;;4998559;28;20042;-91
2022/07/21 05:37:22;;;;;;;7.63;2.45;;;26.10;59.60;;;;;;5015686;28;20053;-90
2022/07/21 05:39:49;;;;;;;6.22;2.15;;;26.20;59.30;;;;;;5025084;28;20136;-88
2022/07/21 05:42:17;;;;;;;5.80;2.45;;;26.30;58.70;;;;;;5031793;28;20081;-85
2022/07/21 05:44:44;;;;;;;3.90;1.70;;;26.50;58.20;;;;;;5024352;28;20053;-84
2022/07/21 05:47:12;;;;;;;4.50;2.25;;;26.60;57.80;;;;;;5013143;28;20053;-89
2022/07/21 05:49:39;;;;;;;5.78;2.17;;;26.70;57.70;;;;;;5026771;28;20042;-87
2022/07/21 05:52:06;;;;;;;6.32;2.42;;;26.80;58.40;;;;;;5005857;28;20131;-83
2022/07/21 05:54:33;;;;;;;5.13;2.20;;;27.00;57.30;;;;;;4986908;28;20049;-84
2022/07/21 05:57:04;;;;;;;4.32;2.42;;;27.10;56.80;;;;;;5028066;28;20057;-88
2022/07/21 05:59:31;;;;;;;5.10;2.17;;;27.20;56.50;;;;;;5028352;28;20107;-85
2022/07/21 06:01:58;;;;;;;4.28;2.17;;;27.20;56.10;;;;;;5006526;28;20064;-88
2022/07/21 06:04:26;;;;;;;7.93;2.55;;;27.40;56.60;;;;;;5014446;28;22367;-83
2022/07/21 06:06:53;;;;;;;3.55;1.95;;;27.50;56.00;;;;;;4996903;28;20092;-82
2022/07/21 06:09:20;;;;;;;5.13;2.83;;;27.60;55.60;;;;;;4990516;28;20076;-79
2022/07/21 06:11:52;;;;;;;5.57;2.25;;;27.70;55.20;;;;;;5036463;28;20127;-92
2022/07/21 06:14:19;;;;;;;12.77;2.97;;;27.70;54.80;;;;;;4996616;28;20053;-84
2022/07/21 06:16:47;;;;;;;5.43;2.47;;;27.80;55.00;;;;;;5006606;28;20049;-84
2022/07/21 06:19:15;;;;;;;6.05;2.72;;;27.90;54.90;;;;;;5014234;28;20049;-87
2022/07/21 06:21:42;;;;;;;5.72;2.40;;;28.00;55.30;;;;;;5025803;28;20041;-80
2022/07/21 06:24:13;;;;;;;5.47;2.10;;;28.20;55.60;;;;;;5018843;28;20054;-84
2022/07/21 06:26:40;;;;;;;5.82;2.60;;;28.30;55.00;;;;;;5010484;28;20493;-82
2022/07/21 06:29:08;;;;;;;3.92;1.92;;;28.40;54.30;;;;;;4997394;28;20071;-84
2022/07/21 06:31:35;;;;;;;8.32;2.42;;;28.50;54.40;;;;;;4997501;28;20067;-85
2022/07/21 06:34:03;;;;;;;6.53;2.25;;;28.60;54.40;;;;;;4990045;28;20055;-84
2022/07/21 06:36:30;;;;;;;4.30;2.58;;;28.70;54.50;;;;;;5028565;28;21049;-81
2022/07/21 06:38:58;;;;;;;7.60;2.60;;;28.80;53.30;;;;;;5035216;28;20383;-85
2022/07/21 06:41:25;;;;;;;6.78;1.98;;;28.80;53.20;;;;;;5016962;28;20632;-81
2022/07/21 06:43:53;;;;;;;5.38;1.80;;;28.80;53.00;;;;;;5008769;28;20061;-85
2022/07/21 06:46:20;;;;;;;4.63;1.67;;;29.00;53.80;;;;;;4991840;28;20048;-85
2022/07/21 06:48:48;;;;;;;4.88;1.92;;;29.10;52.70;;;;;;5018318;28;20659;-83
2022/07/21 06:51:17;;;;;;;4.35;2.30;;;29.20;53.00;;;;;;5018090;28;20046;-87
2022/07/21 06:53:44;;;;;;;4.45;2.63;;;29.30;53.00;;;;;;5000664;28;20064;-83
2022/07/21 06:56:12;;;;;;;4.88;2.13;;;29.50;53.50;;;;;;5005222;28;20053;-85
2022/07/21 06:58:39;;;;;;;9.50;2.40;;;29.50;53.20;;;;;;4997757;28;20122;-85
2022/07/21 07:01:16;;;;;;;4.55;2.40;;;29.70;52.80;;;;;;5014867;28;20058;-86
2022/07/21 07:03:45;;;;;;;6.15;2.00;;;29.70;52.30;;;;;;5017288;28;20049;-85
2022/07/21 07:06:14;;;;;;;3.03;2.03;;;29.80;52.20;;;;;;5019851;28;20072;-84
2022/07/21 07:08:41;;;;;;;5.05;2.30;;;29.80;51.70;;;;;;5007470;28;20045;-86
2022/07/21 07:11:11;;;;;;;4.05;2.25;;;29.90;52.90;;;;;;5020141;28;20053;-81
2022/07/21 07:13:39;;;;;;;3.63;2.30;;;30.00;52.00;;;;;;5023289;28;20054;-86
2022/07/21 07:16:26;;;;;;;4.78;2.10;;;30.10;52.30;;;;;;5011668;28;20076;-83
2022/07/21 07:18:54;;;;;;;5.07;2.53;;;30.20;51.90;;;;;;5022674;28;20045;-81
2022/07/21 07:21:22;;;;;;;11.00;2.50;;;30.30;52.50;;;;;;5002662;28;20167;-82
2022/07/21 07:23:49;;;;;;;3.95;1.73;;;30.40;51.20;;;;;;5026925;28;20142;-85
2022/07/21 07:26:17;;;;;;;4.50;2.03;;;30.50;52.00;;;;;;5014620;28;20141;-85
2022/07/21 07:28:44;;;;;;;4.88;1.88;;;30.70;51.70;;;;;;5055359;28;20064;-84
2022/07/21 07:31:12;;;;;;;4.18;2.40;;;30.70;51.50;;;;;;5015221;28;20061;-84
2022/07/21 07:33:39;;;;;;;3.33;1.90;;;30.80;50.60;;;;;;5019738;28;20083;-82
2022/07/21 07:36:10;;;;;;;3.78;1.75;;;30.80;50.30;;;;;;5051939;28;20053;-83
2022/07/21 07:38:39;;;;;;;4.95;1.65;;;30.80;50.70;;;;;;5042311;28;20052;-80
2022/07/21 07:41:07;;;;;;;2.22;1.40;;;30.90;51.00;;;;;;5036666;28;20042;-82
2022/07/21 07:43:34;;;;;;;5.28;2.00;;;31.00;50.10;;;;;;4994320;28;22390;-84
2022/07/21 07:46:04;;;;;;;6.82;2.13;;;31.00;49.80;;;;;;5027893;28;20037;-82
2022/07/21 07:48:34;;;;;;;5.05;2.20;;;31.10;50.00;;;;;;4993483;28;20054;-83
2022/07/21 07:51:01;;;;;;;5.25;2.22;;;31.10;49.50;;;;;;5018026;28;20604;-83
2022/07/21 07:53:29;;;;;;;2.40;1.45;;;31.20;49.70;;;;;;5033311;28;20059;-84
2022/07/21 07:55:56;;;;;;;5.45;1.75;;;31.30;49.10;;;;;;4993515;28;20057;-83
2022/07/21 07:58:24;;;;;;;4.25;1.80;;;31.20;50.10;;;;;;4991318;28;22242;-82
2022/07/21 08:00:51;;;;;;;3.72;2.08;;;31.40;48.70;;;;;;5006786;28;20045;-84
2022/07/21 08:03:23;;;;;;;4.53;1.98;;;31.40;49.10;;;;;;5030129;28;20136;-82
2022/07/21 08:05:51;;;;;;;4.07;1.60;;;31.40;49.30;;;;;;5005986;28;20059;-84
2022/07/21 08:08:19;;;;;;;4.85;1.77;;;31.60;49.50;;;;;;5010328;28;20053;-84
2022/07/21 08:10:47;;;;;;;5.25;1.90;;;31.60;48.90;;;;;;5021802;28;20052;-84
2022/07/21 08:13:16;;;;;;;5.82;1.83;;;31.70;49.80;;;;;;5048861;28;20144;-82
2022/07/21 08:15:45;;;;;;;2.72;1.83;;;31.70;48.50;;;;;;5041581;28;20056;-79
2022/07/21 08:18:14;;;;;;;4.35;1.73;;;31.60;47.20;;;;;;5029945;28;20080;-84
2022/07/21 08:20:42;;;;;;;8.60;2.10;;;31.60;47.90;;;;;;5041334;28;20045;-80
2022/07/21 08:23:10;;;;;;;4.53;1.83;;;31.60;47.40;;;;;;4997841;28;20073;-85
2022/07/21 08:25:39;;;;;;;3.45;2.05;;;31.70;48.10;;;;;;4994895;28;22573;-83
2022/07/21 08:28:07;;;;;;;2.72;1.58;;;31.80;46.80;;;;;;5027253;28;20052;-86
2022/07/21 08:30:35;;;;;;;2.90;1.88;;;31.80;47.90;;;;;;5035830;28;20045;-83
2022/07/21 08:33:03;;;;;;;5.38;2.10;;;32.00;47.00;;;;;;5030841;28;20505;-85
2022/07/21 08:35:32;;;;;;;3.35;1.92;;;32.00;47.80;;;;;;5018597;28;20547;-84
2022/07/21 08:38:09;;;;;;;3.33;1.80;;;32.10;47.10;;;;;;4997004;28;20102;-85
2022/07/21 08:40:40;;;;;;;4.18;1.90;;;32.20;47.90;;;;;;5015016;28;20119;-83
2022/07/21 08:43:08;;;;;;;4.53;1.55;;;32.30;47.80;;;;;;5001780;28;20067;-84
2022/07/21 08:45:37;;;;;;;4.65;1.92;;;32.30;47.00;;;;;;5011918;28;20054;-86
2022/07/21 08:48:05;;;;;;;3.38;1.63;;;32.20;48.10;;;;;;5004539;28;20417;-81
2022/07/21 08:50:36;;;;;;;4.22;1.73;;;32.30;47.30;;;;;;5029622;28;20404;-84
2022/07/21 08:53:04;;;;;;;7.85;1.80;;;32.20;47.50;;;;;;5017213;28;20060;-86
2022/07/21 08:55:33;;;;;;;3.42;1.75;;;32.30;47.70;;;;;;5032791;28;20073;-85
2022/07/21 08:58:03;;;;;;;3.85;1.58;;;32.40;47.40;;;;;;5013940;28;20041;-84
2022/07/21 09:00:35;;;;;;;3.40;1.65;;;32.50;47.00;;;;;;5030041;28;22406;-85
2022/07/21 09:03:24;;;;;;;3.10;1.80;;;32.40;47.00;;;;;;5000310;28;20127;-86
2022/07/21 09:06:14;;;;;;;6.07;1.88;;;32.50;45.80;;;;;;5007571;28;20062;-83
2022/07/21 09:08:48;;;;;;;3.28;1.52;;;32.50;46.70;;;;;;5031081;28;20045;-84
2022/07/21 09:11:22;;;;;;;4.15;1.65;;;32.50;46.40;;;;;;5045600;28;20057;-86
2022/07/21 09:14:16;;;;;;;4.18;1.70;;;32.60;46.00;;;;;;5045948;28;20080;-86
2022/07/21 09:16:49;;;;;;;6.10;2.13;;;32.50;45.80;;;;;;5032633;28;20053;-85
2022/07/21 09:19:35;;;;;;;5.45;1.60;;;32.40;45.00;;;;;;5001016;28;20052;-86
2022/07/21 09:22:07;;;;;;;2.92;1.70;;;32.40;45.40;;;;;;5027629;28;20045;-86
2022/07/21 09:24:40;;;;;;;4.65;2.13;;;32.40;46.20;;;;;;5014602;28;20063;-86
2022/07/21 09:27:22;;;;;;;2.17;1.40;;;32.50;46.80;;;;;;5023288;28;20196;-85
2022/07/21 09:29:53;;;;;;;4.30;2.22;;;32.60;46.40;;;;;;5046488;28;20056;-86
2022/07/21 09:32:32;;;;;;;4.75;2.08;;;32.70;45.30;;;;;;5025055;28;20049;-86
2022/07/21 09:35:14;;;;;;;3.60;1.85;;;32.70;45.30;;;;;;5045504;28;22413;-84
2022/07/21 09:37:42;;;;;;;2.47;1.92;;;32.60;44.70;;;;;;5002553;28;20103;-87
2022/07/21 09:40:12;;;;;;;3.92;1.60;;;32.50;44.90;;;;;;5045538;28;20060;-91
2022/07/21 09:42:48;;;;;;;4.00;1.92;;;32.50;45.30;;;;;;5001551;28;20054;-84
2022/07/21 09:45:18;;;;;;;3.10;2.00;;;32.40;45.60;;;;;;5034753;28;20049;-86
2022/07/21 09:47:46;;;;;;;4.20;1.83;;;32.40;45.90;;;;;;5044329;28;20056;-85
2022/07/21 09:50:16;;;;;;;3.28;1.48;;;32.50;45.70;;;;;;5040381;28;20522;-84
2022/07/21 09:52:54;;;;;;;3.97;1.80;;;32.60;45.50;;;;;;5041714;28;20060;-83
2022/07/21 09:55:23;;;;;;;5.68;2.20;;;32.70;44.30;;;;;;5007213;28;20056;-84
2022/07/21 09:57:51;;;;;;;1.75;1.45;;;32.70;44.00;;;;;;4996384;28;20049;-83
2022/07/21 10:00:19;;;;;;;3.40;1.45;;;32.80;44.40;;;;;;5027336;28;20057;-85
2022/07/21 10:02:49;;;;;;;4.43;1.70;;;32.80;44.40;;;;;;5046845;28;20087;-83
2022/07/21 10:05:19;;;;;;;5.15;2.50;;;32.90;45.00;;;;;;5029293;28;20059;-86
2022/07/21 10:07:48;;;;;;;3.15;1.50;;;32.90;45.30;;;;;;5022402;28;20052;-83
2022/07/21 10:10:17;;;;;;;4.07;2.00;;;32.90;44.00;;;;;;5036065;28;20057;-84
2022/07/21 10:12:48;;;;;;;4.03;1.60;;;32.90;44.40;;;;;;5038165;28;20661;-80
2022/07/21 10:15:15;;;;;;;3.22;1.75;;;32.90;43.70;;;;;;5044516;28;20051;-84
2022/07/21 10:17:47;;;;;;;2.95;1.88;;;33.00;45.20;;;;;;4996411;28;20056;-84
2022/07/21 10:20:26;;;;;;;3.78;1.95;;;33.10;45.20;;;;;;5022624;28;20056;-85
2022/07/21 10:22:59;;;;;;;2.88;1.90;;;33.10;43.60;;;;;;5025831;28;20405;-80
2022/07/21 10:25:27;;;;;;;4.07;1.88;;;33.10;42.90;;;;;;5011900;28;20050;-85
2022/07/21 10:28:10;;;;;;;3.60;1.92;;;33.10;43.50;;;;;;5031681;28;20433;-81
2022/07/21 10:30:45;;;;;;;4.50;1.63;;;33.10;43.20;;;;;;5037907;28;20095;-84
2022/07/21 10:33:15;;;;;;;4.47;1.90;;;33.10;44.20;;;;;;5035924;28;20049;-82
2022/07/21 10:35:44;;;;;;;6.35;1.88;;;33.10;42.90;;;;;;5022106;28;20053;-82
2022/07/21 10:38:32;;;;;;;5.72;1.65;;;33.00;42.90;;;;;;5018597;28;20068;-83
2022/07/21 10:41:01;;;;;;;3.60;2.25;;;33.10;44.60;;;;;;5040335;28;20045;-80
2022/07/21 10:43:29;;;;;;;5.18;1.95;;;33.10;42.60;;;;;;5002493;28;20061;-81
2022/07/21 10:45:58;;;;;;;3.78;1.85;;;33.20;43.40;;;;;;4999173;28;20045;-81
2022/07/21 10:48:41;;;;;;;2.92;2.00;;;33.20;42.70;;;;;;5021942;28;20058;-82
2022/07/21 10:51:10;;;;;;;3.42;1.52;;;33.20;43.90;;;;;;5010593;28;20057;-81
2022/07/21 10:53:38;;;;;;;4.00;1.70;;;33.30;43.70;;;;;;5004784;28;20057;-83
2022/07/21 10:56:07;;;;;;;4.68;1.67;;;33.30;43.00;;;;;;5016403;28;20057;-80
2022/07/21 10:58:39;;;;;;;4.38;1.63;;;33.30;43.00;;;;;;5043691;28;20065;-83
2022/07/21 11:01:24;;;;;;;5.38;1.50;;;33.40;42.50;;;;;;4997224;28;20249;-84
2022/07/21 11:04:11;;;;;;;3.00;1.80;;;33.40;42.80;;;;;;5019825;28;20064;-85
2022/07/21 11:06:40;;;;;;;2.47;1.33;;;33.50;41.70;;;;;;4992011;28;20140;-80
2022/07/21 11:09:21;;;;;;;3.42;1.83;;;33.40;41.80;;;;;;5005745;28;20053;-84
2022/07/21 11:12:04;;;;;;;4.93;1.48;;;33.60;41.30;;;;;;4996499;28;20057;-85
2022/07/21 11:14:41;;;;;;;3.22;1.52;;;33.80;40.80;;;;;;5013961;28;20049;-83
2022/07/21 11:17:30;;;;;;;3.38;1.27;;;33.80;40.90;;;;;;5019618;28;20977;-83
2022/07/21 11:19:57;;;;;;;3.45;1.92;;;33.60;41.00;;;;;;5033968;28;20057;-83
2022/07/21 11:22:31;;;;;;;4.18;1.52;;;33.70;40.90;;;;;;5045909;28;20577;-84
2022/07/21 11:25:01;;;;;;;2.58;1.33;;;33.70;41.10;;;;;;5017409;28;20045;-83
2022/07/21 11:27:31;;;;;;;3.20;1.38;;;33.70;41.60;;;;;;5010392;28;20139;-83
2022/07/21 11:30:01;;;;;;;5.03;1.67;;;33.80;41.20;;;;;;4997247;28;20057;-87
2022/07/21 11:32:28;;;;;;;4.10;1.48;;;33.70;40.90;;;;;;5000588;28;20045;-84
2022/07/21 11:34:58;;;;;;;4.90;1.90;;;33.80;41.30;;;;;;5040220;28;20053;-86
2022/07/21 11:37:39;;;;;;;4.68;2.20;;;33.80;42.20;;;;;;5027233;28;20054;-83
2022/07/21 11:40:13;;;;;;;3.80;1.93;;;33.80;41.80;;;;;;5005052;28;20080;-83
2022/07/21 11:42:43;;;;;;;3.90;1.60;;;33.80;42.10;;;;;;5010712;28;20045;-82
2022/07/21 11:45:11;;;;;;;4.00;1.42;;;33.90;42.00;;;;;;4993113;28;20120;-82
2022/07/21 11:47:38;;;;;;;6.57;1.83;;;34.00;40.30;;;;;;5018854;28;20053;-82
2022/07/21 11:50:12;;;;;;;3.13;1.95;;;34.10;41.20;;;;;;4999333;28;20049;-82
2022/07/21 11:52:40;;;;;;;5.78;1.70;;;34.10;40.90;;;;;;4989590;28;20159;-83
2022/07/21 11:55:10;;;;;;;3.90;1.42;;;34.10;39.80;;;;;;5018157;28;20057;-81
2022/07/21 11:57:42;;;;;;;4.35;1.73;;;34.00;40.50;;;;;;5032180;28;20879;-81
2022/07/21 12:00:11;;;;;;;4.35;1.60;;;34.00;40.60;;;;;;5024872;28;20049;-82
2022/07/21 12:02:38;;;;;;;3.47;1.48;;;34.10;40.40;;;;;;5011693;28;20050;-82
2022/07/21 12:05:08;;;;;;;3.83;1.85;;;34.10;40.80;;;;;;5006655;28;22528;-85
2022/07/21 12:07:43;;;;;;;4.20;1.45;;;34.30;40.70;;;;;;5016983;28;20167;-81
2022/07/21 12:10:21;;;;;;;5.93;2.20;;;34.30;40.00;;;;;;5020804;28;20049;-83
2022/07/21 12:12:50;;;;;;;8.50;2.30;;;34.30;40.60;;;;;;5037922;28;20175;-83
2022/07/21 12:15:27;;;;;;;3.85;1.73;;;34.30;41.50;;;;;;5040364;28;20049;-84
2022/07/21 12:18:02;;;;;;;3.63;1.73;;;34.40;41.20;;;;;;4987659;28;20524;-85
2022/07/21 12:20:36;;;;;;;2.58;1.73;;;34.50;40.60;;;;;;5010316;28;20053;-85
2022/07/21 12:23:26;;;;;;;2.85;1.80;;;34.40;40.30;;;;;;4999328;28;20045;-83
2022/07/21 12:25:58;;;;;;;3.43;1.83;;;34.40;41.20;;;;;;5028299;28;20054;-81
2022/07/21 12:28:46;;;;;;;3.05;1.80;;;34.40;40.00;;;;;;5002604;28;20056;-82
2022/07/21 12:31:23;;;;;;;5.90;2.20;;;34.40;41.00;;;;;;5044295;28;20049;-84
2022/07/21 12:33:55;;;;;;;4.75;2.15;;;34.30;40.60;;;;;;5013764;28;20077;-85
2022/07/21 12:36:43;;;;;;;6.55;2.50;;;34.30;40.20;;;;;;5027615;28;20053;-83
2022/07/21 12:42:10;;;;;;;10.57;2.20;;;34.60;42.30;;;;;;5030033;28;20088;-84
2022/07/21 12:44:39;;;;;;;;;;;34.60;42.10;;;;;;5017639;28;20060;-83
2022/07/21 12:47:16;;;;;;;4.28;1.85;;;34.60;41.80;;;;;;5054813;28;19936;-82
2022/07/21 12:50:03;;;;;;;4.45;1.73;;;34.50;41.60;;;;;;5040414;28;20138;-83
2022/07/21 12:52:45;;;;;;;8.43;2.50;;;34.60;41.60;;;;;;5041969;28;20049;-88
2022/07/21 12:55:13;;;;;;;5.20;1.98;;;34.70;41.90;;;;;;5015707;28;20168;-82
2022/07/21 12:57:41;;;;;;;2.25;1.77;;;34.70;40.80;;;;;;5000623;28;20333;-85
2022/07/21 13:00:08;;;;;;;4.50;2.15;;;34.70;40.40;;;;;;5056192;28;20053;-86
2022/07/21 13:02:52;;;;;;;6.22;1.98;;;34.70;40.40;;;;;;5043944;28;20145;-84
2022/07/21 13:05:21;;;;;;;4.57;1.83;;;34.70;40.10;;;;;;5040292;28;20187;-82
2022/07/21 13:07:49;;;;;;;4.78;2.22;;;34.60;39.40;;;;;;5041324;28;20099;-86